createdAt,value
2023-04-06T00:00:30.490Z,13.85
2023-04-06T00:02:58.917Z,14.95
2023-04-06T00:05:28.743Z,15.45
2023-04-06T00:07:57.119Z,15.10
2023-04-06T00:10:25.889Z,18.13
2023-04-06T00:12:55.184Z,15.13
2023-04-06T00:15:23.779Z,17.10
2023-04-06T00:17:52.548Z,14.43
2023-04-06T00:20:21.373Z,13.65
2023-04-06T00:22:51.180Z,13.25
2023-04-06T00:25:19.259Z,14.43
2023-04-06T00:27:47.333Z,16.73
2023-04-06T00:30:16.071Z,12.93
2023-04-06T00:32:44.442Z,12.43
2023-04-06T00:35:12.804Z,14.38
2023-04-06T00:37:41.819Z,14.10
2023-04-06T00:40:10.693Z,12.77
2023-04-06T00:42:40.168Z,15.32
2023-04-06T00:45:09.159Z,14.70
2023-04-06T00:47:37.274Z,17.30
2023-04-06T00:50:06.891Z,18.55
2023-04-06T00:52:37.091Z,14.73
2023-04-06T00:55:07.588Z,16.27
2023-04-06T00:57:41.198Z,14.63
2023-04-06T01:00:11.270Z,16.02
2023-04-06T01:02:40.621Z,18.60
2023-04-06T01:05:10.511Z,18.63
2023-04-06T01:07:48.823Z,18.38
2023-04-06T01:10:28.079Z,16.67
2023-04-06T01:13:16.929Z,15.57
2023-04-06T01:15:53.795Z,18.35
2023-04-06T01:18:57.263Z,17.30
2023-04-06T01:21:31.116Z,18.77
2023-04-06T01:24:20.544Z,21.65
2023-04-06T01:27:09.309Z,21.17
2023-04-06T01:30:00.935Z,19.92
2023-04-06T01:32:47.538Z,20.17
2023-04-06T01:35:21.150Z,17.45
2023-04-06T01:38:01.156Z,19.55
2023-04-06T01:40:33.691Z,17.05
2023-04-06T01:43:02.652Z,13.15
2023-04-06T01:45:39.061Z,11.20
2023-04-06T01:48:18.547Z,14.15
2023-04-06T01:50:47.179Z,10.27
2023-04-06T01:53:21.201Z,11.82
2023-04-06T01:55:49.930Z,17.65
2023-04-06T01:58:40.737Z,17.77
2023-04-06T02:01:09.182Z,12.15
2023-04-06T02:03:50.559Z,13.80
2023-04-06T02:06:18.843Z,14.88
2023-04-06T02:08:47.271Z,13.98
2023-04-06T02:11:15.798Z,14.68
2023-04-06T02:13:53.329Z,15.70
2023-04-06T02:16:41.685Z,17.60
2023-04-06T02:19:09.906Z,13.85
2023-04-06T02:21:39.043Z,13.32
2023-04-06T02:24:07.539Z,14.20
2023-04-06T02:26:36.018Z,17.63
2023-04-06T02:29:04.932Z,13.45
2023-04-06T02:31:34.609Z,14.52
2023-04-06T02:34:04.120Z,16.20
2023-04-06T02:36:34.311Z,17.65
2023-04-06T02:39:03.094Z,16.35
2023-04-06T02:41:32.022Z,18.95
2023-04-06T02:44:01.317Z,16.33
2023-04-06T02:46:40.917Z,17.88
2023-04-06T02:49:09.809Z,18.00
2023-04-06T02:51:39.104Z,15.65
2023-04-06T02:54:24.217Z,16.60
2023-04-06T02:56:52.953Z,21.35
2023-04-06T02:59:22.611Z,18.10
2023-04-06T03:02:02.578Z,16.25
2023-04-06T03:04:31.800Z,16.30
2023-04-06T03:07:02.319Z,15.55
2023-04-06T03:09:38.864Z,15.80
2023-04-06T03:12:09.910Z,16.75
2023-04-06T03:14:58.700Z,17.75
2023-04-06T03:17:28.236Z,18.25
2023-04-06T03:20:01.478Z,12.88
2023-04-06T03:22:32.306Z,15.98
2023-04-06T03:25:03.137Z,12.60
2023-04-06T03:27:33.791Z,13.55
2023-04-06T03:30:03.743Z,15.35
2023-04-06T03:32:36.996Z,15.13
2023-04-06T03:35:05.554Z,15.15
2023-04-06T03:37:34.476Z,13.88
2023-04-06T03:40:06.752Z,14.18
2023-04-06T03:42:34.873Z,15.95
2023-04-06T03:45:09.155Z,15.07
2023-04-06T03:47:40.793Z,14.90
2023-04-06T03:50:11.490Z,12.32
2023-04-06T03:52:40.404Z,15.05
2023-04-06T03:55:09.164Z,13.63
2023-04-06T03:57:38.754Z,19.27
2023-04-06T04:00:07.888Z,15.77
2023-04-06T04:02:43.565Z,13.80
2023-04-06T04:05:13.027Z,17.55
2023-04-06T04:07:41.573Z,14.57
2023-04-06T04:10:11.854Z,13.40
2023-04-06T04:12:40.786Z,16.48
2023-04-06T04:15:09.460Z,17.33
2023-04-06T04:17:38.371Z,13.88
2023-04-06T04:20:08.745Z,14.73
2023-04-06T04:22:37.659Z,15.40
2023-04-06T04:25:06.461Z,14.80
2023-04-06T04:27:41.055Z,13.85
2023-04-06T04:30:09.988Z,13.63
2023-04-06T04:32:38.582Z,15.27
2023-04-06T04:35:10.110Z,20.23
2023-04-06T04:37:42.912Z,23.25
2023-04-06T04:40:13.349Z,19.63
2023-04-06T04:42:52.146Z,17.25
2023-04-06T04:45:27.604Z,18.02
2023-04-06T04:47:56.286Z,19.63
2023-04-06T04:50:28.153Z,19.15
2023-04-06T04:52:59.382Z,16.77
2023-04-06T04:55:30.652Z,19.55
2023-04-06T04:58:00.855Z,15.20
2023-04-06T05:00:44.939Z,13.88
2023-04-06T05:03:34.622Z,14.75
2023-04-06T05:06:07.157Z,18.23
2023-04-06T05:08:38.695Z,15.30
2023-04-06T05:11:07.153Z,14.93
2023-04-06T05:13:40.756Z,10.83
2023-04-06T05:16:28.021Z,13.05
2023-04-06T05:18:57.941Z,12.15
2023-04-06T05:21:31.475Z,13.10
2023-04-06T05:24:08.063Z,13.05
2023-04-06T05:26:36.779Z,12.10
2023-04-06T05:29:12.601Z,15.52
2023-04-06T05:31:43.092Z,12.40
2023-04-06T05:34:11.667Z,12.50
2023-04-06T05:36:41.627Z,11.77
2023-04-06T05:39:18.597Z,13.77
2023-04-06T05:41:51.990Z,17.33
2023-04-06T05:44:31.910Z,16.40
2023-04-06T05:47:13.690Z,16.63
2023-04-06T05:49:44.197Z,12.68
2023-04-06T05:52:18.620Z,9.60
2023-04-06T05:54:49.545Z,12.20
2023-04-06T05:57:19.494Z,10.75
2023-04-06T05:59:50.708Z,11.35
2023-04-06T06:02:20.524Z,10.07
2023-04-06T06:04:52.385Z,10.80
2023-04-06T06:07:21.706Z,12.10
2023-04-06T06:09:59.884Z,10.98
2023-04-06T06:12:33.700Z,12.18
2023-04-06T06:15:03.913Z,12.35
2023-04-06T06:17:38.927Z,12.65
2023-04-06T06:20:08.631Z,10.63
2023-04-06T06:22:37.101Z,12.02
2023-04-06T06:25:05.730Z,10.60
2023-04-06T06:27:34.519Z,9.85
2023-04-06T06:30:04.304Z,11.75
2023-04-06T06:32:34.245Z,12.73
2023-04-06T06:35:03.845Z,14.15
2023-04-06T06:37:35.578Z,10.00
2023-04-06T06:40:05.449Z,11.20
2023-04-06T06:42:37.680Z,12.55
2023-04-06T06:45:19.031Z,13.73
2023-04-06T06:47:52.911Z,14.38
2023-04-06T06:50:23.252Z,12.48
2023-04-06T06:52:54.412Z,11.35
2023-04-06T06:55:30.462Z,12.32
2023-04-06T06:58:01.368Z,16.58
2023-04-06T07:00:30.196Z,11.13
2023-04-06T07:03:02.535Z,10.52
2023-04-06T07:05:35.372Z,11.87
2023-04-06T07:08:04.393Z,9.23
2023-04-06T07:10:33.209Z,10.85
2023-04-06T07:13:01.870Z,7.53
2023-04-06T07:15:31.218Z,8.18
2023-04-06T07:18:00.591Z,8.90
2023-04-06T07:20:29.235Z,10.57
2023-04-06T07:22:57.496Z,6.97
2023-04-06T07:25:29.079Z,9.35
2023-04-06T07:27:58.029Z,7.80
2023-04-06T07:30:29.010Z,6.97
2023-04-06T07:33:00.143Z,8.48
2023-04-06T07:35:31.527Z,8.13
2023-04-06T07:38:00.578Z,14.10
2023-04-06T07:40:29.140Z,7.50
2023-04-06T07:43:03.428Z,9.57
2023-04-06T07:45:32.712Z,10.35
2023-04-06T07:48:02.539Z,6.95
2023-04-06T07:50:32.084Z,10.30
2023-04-06T07:53:01.605Z,7.88
2023-04-06T07:55:30.783Z,6.50
2023-04-06T07:57:59.641Z,6.70
2023-04-06T08:00:28.098Z,7.25
2023-04-06T08:02:56.664Z,6.40
2023-04-06T08:05:24.796Z,8.00
2023-04-06T08:07:52.937Z,6.60
2023-04-06T08:10:21.038Z,6.55
2023-04-06T08:12:52.040Z,7.32
2023-04-06T08:15:21.175Z,9.00
2023-04-06T08:17:51.621Z,6.32
2023-04-06T08:20:21.042Z,6.78
2023-04-06T08:22:51.070Z,6.72
2023-04-06T08:25:31.256Z,6.70
2023-04-06T08:28:00.553Z,6.13
2023-04-06T08:30:29.721Z,7.90
2023-04-06T08:32:58.588Z,6.72
2023-04-06T08:35:28.167Z,6.50
2023-04-06T08:37:56.689Z,6.28
2023-04-06T08:40:25.617Z,8.88
2023-04-06T08:42:58.039Z,6.03
2023-04-06T08:47:58.166Z,5.32
2023-04-06T08:50:27.723Z,6.20
2023-04-06T08:52:58.523Z,6.55
2023-04-06T08:55:27.058Z,8.63
2023-04-06T08:57:56.869Z,7.07
2023-04-06T09:00:26.890Z,6.38
2023-04-06T09:02:57.314Z,5.97
2023-04-06T09:05:27.681Z,14.45
2023-04-06T09:07:56.460Z,26.75
2023-04-06T09:10:26.189Z,11.45
2023-04-06T09:13:05.818Z,4.90
2023-04-06T09:15:36.051Z,8.35
2023-04-06T09:18:04.785Z,5.40
2023-04-06T09:20:33.172Z,6.22
2023-04-06T09:23:01.498Z,5.30
2023-04-06T09:25:29.764Z,6.22
2023-04-06T09:28:08.160Z,4.60
2023-04-06T09:30:37.086Z,8.18
2023-04-06T09:33:06.103Z,6.15
2023-04-06T09:35:34.296Z,5.32
2023-04-06T09:38:13.388Z,4.90
2023-04-06T09:43:30.787Z,6.15
2023-04-06T09:46:01.990Z,5.45
2023-04-06T09:48:32.483Z,6.90
2023-04-06T09:51:04.590Z,6.53
2023-04-06T09:53:37.177Z,10.25
2023-04-06T09:56:34.883Z,8.07
2023-04-06T09:59:06.593Z,16.77
2023-04-06T10:01:37.018Z,5.97
2023-04-06T10:04:14.629Z,5.35
2023-04-06T10:06:43.407Z,5.55
2023-04-06T10:09:12.469Z,7.60
2023-04-06T10:11:41.205Z,6.13
2023-04-06T10:14:10.621Z,5.63
2023-04-06T10:16:38.778Z,5.85
2023-04-06T10:19:15.130Z,6.40
2023-04-06T10:21:46.723Z,5.57
2023-04-06T10:24:15.122Z,7.35
2023-04-06T10:26:43.257Z,5.43
2023-04-06T10:29:11.689Z,5.38
2023-04-06T10:31:44.544Z,5.18
2023-04-06T10:34:12.829Z,6.97
2023-04-06T10:36:41.004Z,6.15
2023-04-06T10:39:08.991Z,7.45
2023-04-06T10:41:45.921Z,6.85
2023-04-06T10:44:24.795Z,5.75
2023-04-06T10:47:02.798Z,5.93
2023-04-06T10:49:30.965Z,7.13
2023-04-06T10:51:59.496Z,6.88
2023-04-06T10:54:29.184Z,4.75
2023-04-06T10:56:57.875Z,4.82
2023-04-06T10:59:26.600Z,6.47
2023-04-06T11:01:56.987Z,7.63
2023-04-06T11:04:26.342Z,4.97
2023-04-06T11:06:56.153Z,5.35
2023-04-06T11:09:26.199Z,6.93
2023-04-06T11:11:55.033Z,6.15
2023-04-06T11:14:23.317Z,8.75
2023-04-06T11:16:52.083Z,5.35
2023-04-06T11:19:20.482Z,5.45
2023-04-06T11:21:50.314Z,5.40
2023-04-06T11:24:25.296Z,5.93
2023-04-06T11:26:58.203Z,5.55
2023-04-06T11:32:23.184Z,5.03
2023-04-06T11:34:51.311Z,5.90
2023-04-06T11:37:19.407Z,4.75
2023-04-06T11:39:51.105Z,5.10
2023-04-06T11:42:26.940Z,4.00
2023-04-06T11:44:56.098Z,4.85
2023-04-06T11:47:32.398Z,4.80
2023-04-06T11:50:15.932Z,4.28
2023-04-06T11:52:44.785Z,4.80
2023-04-06T11:55:17.883Z,5.43
2023-04-06T11:57:46.584Z,5.80
2023-04-06T12:00:14.988Z,5.07
2023-04-06T12:02:47.544Z,4.95
2023-04-06T12:05:15.868Z,5.45
2023-04-06T12:07:44.012Z,5.55
2023-04-06T12:10:12.217Z,5.13
2023-04-06T12:12:40.926Z,6.00
2023-04-06T12:15:09.710Z,4.93
2023-04-06T12:17:38.265Z,6.18
2023-04-06T12:20:22.141Z,5.13
2023-04-06T12:22:53.634Z,5.32
2023-04-06T12:25:21.774Z,5.43
2023-04-06T12:27:49.986Z,6.25
2023-04-06T12:30:18.146Z,4.15
2023-04-06T12:32:47.238Z,4.43
2023-04-06T12:35:17.285Z,5.38
2023-04-06T12:37:45.666Z,5.10
2023-04-06T12:40:13.846Z,4.90
2023-04-06T12:42:42.901Z,4.35
2023-04-06T12:45:11.488Z,4.60
2023-04-06T12:47:39.488Z,5.38
2023-04-06T12:50:08.135Z,5.53
2023-04-06T12:52:37.559Z,3.95
2023-04-06T12:55:07.371Z,4.88
2023-04-06T12:57:36.213Z,6.90
2023-04-06T13:00:07.058Z,5.05
2023-04-06T13:02:36.775Z,4.40
2023-04-06T13:05:05.334Z,5.13
2023-04-06T13:07:33.296Z,4.80
2023-04-06T13:10:01.338Z,6.05
2023-04-06T13:12:29.618Z,5.78
2023-04-06T13:14:57.911Z,5.30
2023-04-06T13:17:29.109Z,7.45
2023-04-06T13:19:58.400Z,5.82
2023-04-06T13:22:26.734Z,4.88
2023-04-06T13:24:55.493Z,6.65
2023-04-06T13:27:23.937Z,5.63
2023-04-06T13:29:51.984Z,5.78
2023-04-06T13:32:20.061Z,5.43
2023-04-06T13:34:49.946Z,4.90
2023-04-06T13:37:18.080Z,5.43
2023-04-06T13:39:46.112Z,6.38
2023-04-06T13:42:14.181Z,7.05
2023-04-06T13:44:42.423Z,6.07
2023-04-06T13:47:10.761Z,4.60
2023-04-06T13:49:38.934Z,5.60
2023-04-06T13:52:06.907Z,7.18
2023-04-06T13:54:36.281Z,6.07
2023-04-06T13:57:04.534Z,7.60
2023-04-06T13:59:35.035Z,5.78
2023-04-06T14:02:08.361Z,6.25
2023-04-06T14:04:37.610Z,7.13
2023-04-06T14:07:08.406Z,5.03
2023-04-06T14:09:36.544Z,6.55
2023-04-06T14:12:04.516Z,10.70
2023-04-06T14:14:32.605Z,7.53
2023-04-06T14:17:01.307Z,5.57
2023-04-06T14:19:29.402Z,6.25
2023-04-06T14:21:57.547Z,6.03
2023-04-06T14:24:25.898Z,5.88
2023-04-06T14:26:54.127Z,6.03
2023-04-06T14:29:22.162Z,6.22
2023-04-06T14:31:50.656Z,7.20
2023-04-06T14:34:18.636Z,6.95
2023-04-06T14:36:46.828Z,10.20
2023-04-06T14:39:14.937Z,6.10
2023-04-06T14:41:42.969Z,8.63
2023-04-06T14:44:37.831Z,8.90
2023-04-06T14:47:06.525Z,7.20
2023-04-06T14:49:34.557Z,6.88
2023-04-06T14:52:02.710Z,6.72
2023-04-06T14:54:35.675Z,6.18
2023-04-06T14:57:04.490Z,8.13
2023-04-06T14:59:35.930Z,6.63
2023-04-06T15:02:08.027Z,7.40
2023-04-06T15:04:37.699Z,6.90
2023-04-06T15:07:05.934Z,6.22
2023-04-06T15:09:37.381Z,8.00
2023-04-06T15:12:06.425Z,6.78
2023-04-06T15:14:34.573Z,7.10
2023-04-06T15:17:02.528Z,7.88
2023-04-06T15:19:30.585Z,7.30
2023-04-06T15:21:59.738Z,9.02
2023-04-06T15:24:29.012Z,6.90
2023-04-06T15:26:57.974Z,10.55
2023-04-06T15:29:26.824Z,7.28
2023-04-06T15:31:55.061Z,9.18
2023-04-06T15:34:23.106Z,7.57
2023-04-06T15:36:52.311Z,7.78
2023-04-06T15:39:20.113Z,8.32
2023-04-06T15:41:48.221Z,11.75
2023-04-06T15:44:16.837Z,9.23
2023-04-06T15:46:44.834Z,10.95
2023-04-06T15:49:12.836Z,7.95
2023-04-06T15:51:40.926Z,8.60
2023-04-06T15:54:08.907Z,9.45
2023-04-06T15:56:36.838Z,8.27
2023-04-06T15:59:04.810Z,9.88
2023-04-06T16:01:32.956Z,8.68
2023-04-06T16:04:01.750Z,10.20
2023-04-06T16:06:32.662Z,7.82
2023-04-06T16:09:00.729Z,8.38
2023-04-06T16:11:29.184Z,6.65
2023-04-06T16:13:57.984Z,7.20
2023-04-06T16:16:26.279Z,9.23
2023-04-06T16:18:54.443Z,12.38
2023-04-06T16:21:22.508Z,10.98
2023-04-06T16:23:50.499Z,13.10
2023-04-06T16:26:18.723Z,12.30
2023-04-06T16:28:47.604Z,8.10
2023-04-06T16:31:23.026Z,10.80
2023-04-06T16:33:54.681Z,12.13
2023-04-06T16:36:28.050Z,10.57
2023-04-06T16:38:57.473Z,11.90
2023-04-06T16:41:26.755Z,12.85
2023-04-06T16:43:57.672Z,11.95
2023-04-06T16:46:36.269Z,12.07
2023-04-06T16:49:06.984Z,11.05
2023-04-06T16:51:37.029Z,11.77
2023-04-06T16:54:05.359Z,13.57
2023-04-06T16:56:33.593Z,14.88
2023-04-06T16:59:01.854Z,12.48
2023-04-06T17:01:30.634Z,17.58
2023-04-06T17:03:58.950Z,14.05
2023-04-06T17:06:28.040Z,14.32
2023-04-06T17:08:56.283Z,14.50
2023-04-06T17:11:28.549Z,14.57
2023-04-06T17:14:04.042Z,21.33
2023-04-06T17:16:32.867Z,16.38
2023-04-06T17:19:01.028Z,15.07
2023-04-06T17:21:29.098Z,14.05
2023-04-06T17:23:57.170Z,14.68
2023-04-06T17:26:25.188Z,15.65
2023-04-06T17:28:53.273Z,15.88
2023-04-06T17:31:22.540Z,16.45
2023-04-06T17:33:50.882Z,14.07
2023-04-06T17:36:20.649Z,16.15
2023-04-06T17:38:49.882Z,15.23
2023-04-06T17:41:17.773Z,15.30
2023-04-06T17:43:46.016Z,16.73
2023-04-06T17:46:14.503Z,15.38
2023-04-06T17:48:44.028Z,17.13
2023-04-06T17:51:14.810Z,17.65
2023-04-06T17:53:43.075Z,20.17
2023-04-06T17:56:11.358Z,19.42
2023-04-06T17:58:39.900Z,21.67
2023-04-06T18:01:11.339Z,19.60
2023-04-06T18:03:39.433Z,25.05
2023-04-06T18:06:14.229Z,32.63
2023-04-06T18:08:43.154Z,196.98
2023-04-06T18:11:25.723Z,157.38
2023-04-06T18:13:54.054Z,37.05
2023-04-06T18:16:22.477Z,20.13
2023-04-06T18:18:51.298Z,24.23
2023-04-06T18:21:19.920Z,32.05
2023-04-06T18:23:49.469Z,26.23
2023-04-06T18:26:20.034Z,26.35
2023-04-06T18:28:48.370Z,25.00
2023-04-06T18:31:16.918Z,22.05
2023-04-06T18:33:46.950Z,46.78
2023-04-06T18:36:16.008Z,60.67
2023-04-06T18:38:48.068Z,115.18
2023-04-06T18:41:18.095Z,58.70
2023-04-06T18:43:46.891Z,36.58
2023-04-06T18:46:16.417Z,31.08
2023-04-06T18:48:45.099Z,40.45
2023-04-06T18:51:13.123Z,43.42
2023-04-06T18:53:41.247Z,40.85
2023-04-06T18:56:17.710Z,36.92
2023-04-06T18:58:48.313Z,39.10
2023-04-06T19:01:29.981Z,40.25
2023-04-06T19:03:59.554Z,42.70
2023-04-06T19:06:28.402Z,83.80
2023-04-06T19:08:57.095Z,41.42
2023-04-06T19:11:26.403Z,40.97
2023-04-06T19:13:55.386Z,38.53
2023-04-06T19:16:24.102Z,44.58
2023-04-06T19:18:52.246Z,40.70
2023-04-06T19:21:23.112Z,35.95
2023-04-06T19:23:55.264Z,32.35
2023-04-06T19:26:24.480Z,33.05
2023-04-06T19:28:53.323Z,35.10
2023-04-06T19:31:21.872Z,34.00
2023-04-06T19:33:50.228Z,37.50
2023-04-06T19:36:18.509Z,33.70
2023-04-06T19:38:46.760Z,36.35
2023-04-06T19:41:14.811Z,34.65
2023-04-06T19:43:43.545Z,31.40
2023-04-06T19:46:12.171Z,32.63
2023-04-06T19:48:40.324Z,30.10
2023-04-06T19:51:09.220Z,23.85
2023-04-06T19:53:38.041Z,24.55
2023-04-06T19:56:06.286Z,24.08
2023-04-06T19:58:34.808Z,28.02
2023-04-06T20:01:03.410Z,24.95
2023-04-06T20:03:32.617Z,29.30
2023-04-06T20:06:00.981Z,25.83
2023-04-06T20:08:29.966Z,21.52
2023-04-06T20:11:05.873Z,24.02
2023-04-06T20:13:35.281Z,25.80
2023-04-06T20:16:04.382Z,22.85
2023-04-06T20:18:33.160Z,26.65
2023-04-06T20:21:01.630Z,26.17
2023-04-06T20:23:29.652Z,24.17
2023-04-06T20:25:57.738Z,27.60
2023-04-06T20:28:26.078Z,32.70
2023-04-06T20:30:54.235Z,29.70
2023-04-06T20:33:24.276Z,30.95
2023-04-06T20:36:01.764Z,29.65
2023-04-06T20:38:33.783Z,21.30
2023-04-06T20:41:02.586Z,19.58
2023-04-06T20:43:31.969Z,22.77
2023-04-06T20:46:02.149Z,23.55
2023-04-06T20:48:33.548Z,21.05
2023-04-06T20:51:05.014Z,27.48
2023-04-06T20:53:34.153Z,25.00
2023-04-06T20:56:03.451Z,29.20
2023-04-06T20:58:31.922Z,18.50
2023-04-06T21:01:01.476Z,25.58
2023-04-06T21:03:29.731Z,24.00
2023-04-06T21:05:59.971Z,19.45
2023-04-06T21:08:28.539Z,20.90
2023-04-06T21:10:56.846Z,29.15
2023-04-06T21:13:24.886Z,24.52
2023-04-06T21:15:53.938Z,19.83
2023-04-06T21:18:23.086Z,19.90
2023-04-06T21:20:51.216Z,21.08
2023-04-06T21:23:19.663Z,21.35
2023-04-06T21:25:50.238Z,19.95
2023-04-06T21:28:19.176Z,15.32
2023-04-06T21:30:48.185Z,16.30
2023-04-06T21:33:16.398Z,16.00
2023-04-06T21:35:44.930Z,15.45
2023-04-06T21:38:13.758Z,14.55
2023-04-06T21:40:41.904Z,16.73
2023-04-06T21:43:11.168Z,22.75
2023-04-06T21:45:40.281Z,19.83
2023-04-06T21:48:09.470Z,16.27
2023-04-06T21:50:40.931Z,22.58
2023-04-06T21:53:09.548Z,20.38
2023-04-06T21:55:46.717Z,21.27
2023-04-06T21:58:40.189Z,19.83
2023-04-06T22:01:12.756Z,19.02
2023-04-06T22:03:41.322Z,18.55
2023-04-06T22:06:09.916Z,23.73
2023-04-06T22:08:38.443Z,21.85
2023-04-06T22:11:11.541Z,25.65
2023-04-06T22:13:40.387Z,22.42
2023-04-06T22:16:09.239Z,24.25
2023-04-06T22:18:39.200Z,22.85
2023-04-06T22:21:09.284Z,20.92
2023-04-06T22:23:42.514Z,20.85
2023-04-06T22:28:40.191Z,18.27
2023-04-06T22:31:09.168Z,20.20
2023-04-06T22:33:37.338Z,20.02
2023-04-06T22:36:06.170Z,18.38
2023-04-06T22:38:34.370Z,19.45
2023-04-06T22:41:02.313Z,21.67
2023-04-06T22:43:30.509Z,18.40
2023-04-06T22:45:58.983Z,23.35
2023-04-06T22:48:27.131Z,18.33
2023-04-06T22:50:56.499Z,21.52
2023-04-06T22:53:24.591Z,24.85
2023-04-06T22:55:53.494Z,19.23
2023-04-06T22:58:21.926Z,21.75
2023-04-06T23:00:50.562Z,24.35
2023-04-06T23:03:18.761Z,24.58
2023-04-06T23:05:48.033Z,21.10
2023-04-06T23:08:17.118Z,22.13
2023-04-06T23:10:45.944Z,20.92
2023-04-06T23:13:13.930Z,25.10
2023-04-06T23:15:42.391Z,25.13
2023-04-06T23:18:10.918Z,21.52
2023-04-06T23:20:40.475Z,25.90
2023-04-06T23:23:08.960Z,21.05
2023-04-06T23:25:37.012Z,20.13
2023-04-06T23:28:05.820Z,20.10
2023-04-06T23:30:34.516Z,20.17
2023-04-06T23:33:02.481Z,25.73
2023-04-06T23:35:30.616Z,23.58
2023-04-06T23:37:59.522Z,20.98
2023-04-06T23:40:27.513Z,19.20
2023-04-06T23:42:56.410Z,19.63
2023-04-06T23:45:24.424Z,20.52
2023-04-06T23:47:52.929Z,20.23
2023-04-06T23:50:22.156Z,22.75
2023-04-06T23:52:50.972Z,19.42
2023-04-06T23:55:18.993Z,22.15
2023-04-06T23:57:47.046Z,21.38
